Station Historical Data
Daily Summary for January 22, 2018 Units:  Metric    English   Both
« Previous Day
Next Day »
Daily Weekly Monthly Yearly Custom
  High: Low: Average:
Temperature: 10.2 °C 2.9 °C 6.3 °C
Dew Point: 8.3 °C 1.8 °C 5.2 °C
Humidity: 94% 86% 92%
Wind Speed: 9.7km/h 0km/h 1.3km/h
Wind Gust: 12.9km/h - -
Wind- - East
Pressure: 1018.5 hPa 1003.3 hPa -
Precipitation: 0 mm    
Historical Graphs
 
 
Tabular Data for January 22, 2018
Time Temperature Dew Point Pressure Wind Wind Speed Wind Gust Humidity Rainfall Rate (Hourly)
00:04 3.1 °C 1.9 °C 1018.5 hPa Calm     92% 0 mm
00:19 3 °C 1.8 °C 1018.5 hPa Calm     92% 0 mm
00:29 2.9 °C 1.8 °C 1018.5 hPa Calm     92% 0 mm
00:34 2.9 °C 1.8 °C 1018.5 hPa Calm     92% 0 mm
00:44 3.1 °C 1.9 °C 1018.5 hPa Calm     92% 0 mm
00:54 3.1 °C 1.9 °C 1018.5 hPa Calm     92% 0 mm
00:59 3.1 °C 1.9 °C 1018.5 hPa Calm     92% 0 mm
01:04 3.2 °C 2 °C 1018.2 hPa Calm     92% 0 mm
01:09 3.2 °C 2 °C 1018.2 hPa Calm     92% 0 mm
01:14 3.2 °C 2 °C 1018.2 hPa Calm     92% 0 mm
01:29 3.2 °C 2 °C 1018.2 hPa Calm     92% 0 mm
01:34 3.2 °C 2.1 °C 1018.2 hPa Calm     92% 0 mm
01:39 3.2 °C 2.1 °C 1018.2 hPa Calm     92% 0 mm
01:49 3.2 °C 2 °C 1018.2 hPa Calm     92% 0 mm
01:59 3.2 °C 2 °C 1018.2 hPa Calm     92% 0 mm
02:04 3.2 °C 2 °C 1018.2 hPa Calm     92% 0 mm
02:09 3.2 °C 2 °C 1018.2 hPa Calm     92% 0 mm
02:19 3.2 °C 2 °C 1018.2 hPa Calm     92% 0 mm
02:24 3.2 °C 2.1 °C 1018.2 hPa Calm     92% 0 mm
02:34 3.3 °C 2.2 °C 1018.2 hPa Calm     92% 0 mm
02:39 3.4 °C 2.3 °C 1018.2 hPa Calm     92% 0 mm
02:44 3.4 °C 2.2 °C 1018.2 hPa Calm     92% 0 mm
02:49 3.4 °C 2.4 °C 1018.2 hPa Calm     93% 0 mm
02:54 3.4 °C 2.2 °C 1018.2 hPa Calm     92% 0 mm
02:59 3.4 °C 2.4 °C 1018.2 hPa Calm     93% 0 mm
03:04 3.4 °C 2.4 °C 1018.2 hPa Calm     93% 0 mm
03:09 3.4 °C 2.4 °C 1018.2 hPa Calm     93% 0 mm
03:14 3.3 °C 2.2 °C 1018.2 hPa Calm     92% 0 mm
03:19 3.4 °C 2.4 °C 1017.8 hPa Calm     93% 0 mm
03:24 3.4 °C 2.4 °C 1018.2 hPa Calm     93% 0 mm
03:29 3.4 °C 2.4 °C 1018.2 hPa Calm     93% 0 mm
03:34 3.4 °C 2.4 °C 1018.2 hPa Calm     93% 0 mm
03:39 3.5 °C 2.5 °C 1017.8 hPa Calm     93% 0 mm
03:44 3.5 °C 2.5 °C 1017.8 hPa Calm     93% 0 mm
03:49 3.5 °C 2.5 °C 1017.8 hPa Calm     93% 0 mm
03:54 3.6 °C 2.6 °C 1017.8 hPa Calm     93% 0 mm
03:59 3.6 °C 2.6 °C 1017.8 hPa Calm     93% 0 mm
04:04 3.6 °C 2.6 °C 1017.8 hPa Calm     93% 0 mm
04:09 3.6 °C 2.6 °C 1017.5 hPa Calm     93% 0 mm
04:14 3.6 °C 2.6 °C 1017.8 hPa Calm     93% 0 mm
04:19 3.6 °C 2.6 °C 1017.8 hPa Calm     93% 0 mm
04:29 3.6 °C 2.6 °C 1017.8 hPa Calm     93% 0 mm
04:34 3.6 °C 2.6 °C 1017.8 hPa Calm     93% 0 mm
04:39 3.7 °C 2.7 °C 1017.8 hPa Calm     93% 0 mm
04:49 3.6 °C 2.6 °C 1017.8 hPa Calm     93% 0 mm
04:54 3.6 °C 2.6 °C 1017.8 hPa Calm     93% 0 mm
04:59 3.7 °C 2.7 °C 1017.8 hPa Calm     93% 0 mm
05:04 3.7 °C 2.7 °C 1017.5 hPa Calm     93% 0 mm
05:09 3.6 °C 2.6 °C 1017.5 hPa Calm     93% 0 mm
05:14 3.7 °C 2.7 °C 1017.8 hPa Calm     93% 0 mm
05:19 3.7 °C 2.7 °C 1017.8 hPa Calm     93% 0 mm
05:24 3.8 °C 2.7 °C 1017.8 hPa Calm     93% 0 mm
05:29 3.8 °C 2.7 °C 1017.8 hPa Calm     93% 0 mm
05:34 3.8 °C 2.7 °C 1017.8 hPa Calm     93% 0 mm
05:54 3.9 °C 2.9 °C 1017.8 hPa Calm     93% 0 mm
05:59 4 °C 2.9 °C 1017.8 hPa Calm     93% 0 mm
06:04 3.9 °C 2.9 °C 1017.5 hPa Calm   4.8 km/h 93% 0 mm
06:09 4 °C 2.9 °C 1017.5 hPa Calm   4.8 km/h 93% 0 mm
06:14 4 °C 2.9 °C 1017.5 hPa SW 1.6 km/h 3.2 km/h 93% 0 mm
06:24 4.1 °C 3.1 °C 1017.5 hPa Calm     93% 0 mm
06:29 4.1 °C 3 °C 1017.5 hPa Calm     93% 0 mm
06:34 4.1 °C 3 °C 1017.5 hPa Calm     93% 0 mm
06:39 4.1 °C 3.2 °C 1017.8 hPa Calm     94% 0 mm
06:44 4.1 °C 3.2 °C 1018.2 hPa Calm     94% 0 mm
06:54 4.1 °C 3 °C 1018.2 hPa Calm     93% 0.25 mm
06:59 4.2 °C 3.3 °C 1018.2 hPa Calm     94% 0.25 mm
07:04 4.1 °C 3 °C 1017.8 hPa Calm     93% 0.25 mm
07:09 4.1 °C 3.2 °C 1017.8 hPa Calm     94% 0.25 mm
07:14 4.2 °C 3.3 °C 1017.5 hPa Calm     94% 0.25 mm
07:19 4.2 °C 3.3 °C 1017.5 hPa South 1.6 km/h 6.4 km/h 94% 0.25 mm
07:24 4.2 °C 3.3 °C 1017.5 hPa South 1.6 km/h 4.8 km/h 94% 0.25 mm
07:29 4.3 °C 3.4 °C 1017.8 hPa Calm   4.8 km/h 94% 0.25 mm
07:39 4.3 °C 3.4 °C 1017.5 hPa Calm   4.8 km/h 94% 0.25 mm
07:44 4.3 °C 3.2 °C 1017.5 hPa South 4.8 km/h 8 km/h 93% 0.25 mm
07:59 4.3 °C 3.4 °C 1017.2 hPa Calm   6.4 km/h 94% 0 mm
08:04 4.2 °C 3.2 °C 1017.2 hPa SSE 1.6 km/h 6.4 km/h 93% 0 mm
08:14 4.2 °C 3.3 °C 1017.2 hPa SSE 1.6 km/h 6.4 km/h 94% 0.25 mm
08:19 4.3 °C 3.4 °C 1017.2 hPa SSE 3.2 km/h 8 km/h 94% 0.25 mm
08:24 4.3 °C 3.4 °C 1017.2 hPa Calm   4.8 km/h 94% 0.25 mm
08:29 4.4 °C 3.5 °C 1017.2 hPa Calm   6.4 km/h 94% 0.25 mm
08:39 4.4 °C 3.5 °C 1016.8 hPa SSE 3.2 km/h 8 km/h 94% 0.25 mm
08:49 4.7 °C 3.8 °C 1016.5 hPa ESE 4.8 km/h 12.9 km/h 94% 0.25 mm
08:54 4.7 °C 3.8 °C 1016.5 hPa East 1.6 km/h 9.7 km/h 94% 0.25 mm
09:04 4.7 °C 3.8 °C 1016.5 hPa Calm   11.3 km/h 94% 0.25 mm
09:09 4.7 °C 3.8 °C 1016.5 hPa East 3.2 km/h 8 km/h 94% 0.25 mm
09:14 4.7 °C 3.8 °C 1016.5 hPa East 1.6 km/h 8 km/h 94% 0 mm
09:24 4.8 °C 3.9 °C 1016.5 hPa East 3.2 km/h 9.7 km/h 94% 0 mm
09:29 4.9 °C 4.1 °C 1016.5 hPa East 3.2 km/h 11.3 km/h 94% 0 mm
09:34 5 °C 4.1 °C 1016.5 hPa East 9.7 km/h 9.7 km/h 94% 0 mm
09:39 5.1 °C 4.2 °C 1016.5 hPa ESE 4.8 km/h 9.7 km/h 94% 0 mm
09:44 5.1 °C 4.2 °C 1016.5 hPa East 4.8 km/h 9.7 km/h 94% 0 mm
09:49 5.1 °C 4.2 °C 1016.5 hPa East 3.2 km/h 9.7 km/h 94% 0 mm
09:54 5.1 °C 4.2 °C 1016.5 hPa East 3.2 km/h 9.7 km/h 94% 0 mm
09:59 5.1 °C 4.2 °C 1016.1 hPa East 1.6 km/h 9.7 km/h 94% 0 mm
10:04 5.1 °C 4.2 °C 1016.1 hPa East 3.2 km/h 9.7 km/h 94% 0 mm
10:09 5.2 °C 4.3 °C 1016.1 hPa East 3.2 km/h 11.3 km/h 94% 0 mm
10:14 5.1 °C 4.2 °C 1016.1 hPa East 3.2 km/h 11.3 km/h 94% 0 mm
10:19 5.1 °C 4.2 °C 1016.1 hPa East 3.2 km/h 11.3 km/h 94% 0 mm
10:24 5.1 °C 4.2 °C 1016.1 hPa East 4.8 km/h 8 km/h 94% 0 mm
10:29 5.1 °C 4.2 °C 1016.1 hPa East 8 km/h 9.7 km/h 94% 0 mm
10:34 5.2 °C 4.3 °C 1016.1 hPa East 1.6 km/h 8 km/h 94% 0.25 mm
10:39 5.2 °C 4.3 °C 1015.8 hPa East 8 km/h 9.7 km/h 94% 0.25 mm
10:44 5.3 °C 4.4 °C 1015.8 hPa East 3.2 km/h 11.3 km/h 94% 0.51 mm
10:49 5.4 °C 4.5 °C 1015.8 hPa East 1.6 km/h 8 km/h 94% 0.51 mm
10:54 5.6 °C 4.7 °C 1015.8 hPa East 1.6 km/h 8 km/h 94% 0.51 mm
10:59 5.6 °C 4.7 °C 1015.8 hPa East 1.6 km/h 9.7 km/h 94% 0.76 mm
11:04 5.7 °C 4.8 °C 1015.5 hPa East 3.2 km/h 9.7 km/h 94% 0.76 mm
11:09 5.7 °C 4.8 °C 1015.5 hPa East 3.2 km/h 9.7 km/h 94% 0.76 mm
11:14 5.7 °C 4.8 °C 1015.1 hPa East 3.2 km/h 8 km/h 94% 0.76 mm
11:19 5.7 °C 4.8 °C 1015.1 hPa East 1.6 km/h 8 km/h 94% 0.76 mm
11:24 5.7 °C 4.8 °C 1015.1 hPa Calm   8 km/h 94% 1.02 mm
11:29 5.7 °C 4.8 °C 1015.1 hPa ENE 3.2 km/h 8 km/h 94% 1.02 mm
11:34 5.8 °C 4.9 °C 1014.8 hPa ENE 3.2 km/h 4.8 km/h 94% 0.76 mm
11:39 5.8 °C 4.9 °C 1014.8 hPa ENE 3.2 km/h 6.4 km/h 94% 0.76 mm
11:44 5.9 °C 5 °C 1014.8 hPa ENE 3.2 km/h 8 km/h 94% 0.76 mm
11:49 5.9 °C 5.1 °C 1014.4 hPa ENE 1.6 km/h 6.4 km/h 94% 0.76 mm
11:54 5.9 °C 5.1 °C 1014.4 hPa ENE 3.2 km/h 11.3 km/h 94% 1.02 mm
11:59 5.9 °C 5 °C 1014.4 hPa ENE 3.2 km/h 6.4 km/h 94% 0.76 mm
12:04 5.9 °C 5 °C 1014.1 hPa ENE 3.2 km/h 11.3 km/h 94% 0.76 mm
12:09 5.9 °C 5 °C 1014.1 hPa ENE 3.2 km/h 11.3 km/h 94% 0.76 mm
12:14 5.9 °C 5.1 °C 1013.8 hPa ENE 3.2 km/h 8 km/h 94% 0.76 mm
12:19 5.9 °C 5 °C 1013.8 hPa ENE 3.2 km/h 8 km/h 94% 0.76 mm
12:24 6.1 °C 5.2 °C 1013.4 hPa ENE 1.6 km/h 4.8 km/h 94% 0.51 mm
12:29 6.2 °C 5.3 °C 1013.4 hPa ENE 3.2 km/h 6.4 km/h 94% 0.51 mm
12:34 6.3 °C 5.4 °C 1013.4 hPa ENE 3.2 km/h 4.8 km/h 94% 0.51 mm
12:39 6.4 °C 5.6 °C 1013.4 hPa ENE 4.8 km/h 6.4 km/h 94% 0.51 mm
12:44 6.5 °C 5.6 °C 1013.4 hPa ENE 4.8 km/h 6.4 km/h 94% 0.25 mm
12:49 6.6 °C 5.7 °C 1013.4 hPa ENE 3.2 km/h 4.8 km/h 94% 0.25 mm
12:54 6.6 °C 5.7 °C 1013.1 hPa ENE 3.2 km/h 6.4 km/h 94% 0 mm
12:59 6.7 °C 5.8 °C 1013.1 hPa ENE 3.2 km/h 6.4 km/h 94% 0 mm
13:04 6.8 °C 5.9 °C 1012.8 hPa ENE 3.2 km/h 6.4 km/h 94% 0 mm
13:09 7 °C 6.1 °C 1012.8 hPa ENE 3.2 km/h 6.4 km/h 94% 0 mm
13:14 7.2 °C 6.3 °C 1012.4 hPa ENE 1.6 km/h 6.4 km/h 94% 0 mm
13:19 7.3 °C 6.4 °C 1012.4 hPa ENE 3.2 km/h 8 km/h 94% 0 mm
13:24 7.7 °C 6.8 °C 1012.1 hPa ENE 3.2 km/h 8 km/h 94% 0 mm
13:29 7.9 °C 7 °C 1012.1 hPa ENE 3.2 km/h 6.4 km/h 94% 0 mm
13:34 7.8 °C 6.7 °C 1012.1 hPa ENE 3.2 km/h 6.4 km/h 93% 0 mm
13:39 7.9 °C 6.8 °C 1012.1 hPa Calm   4.8 km/h 93% 0 mm
13:44 7.9 °C 6.9 °C 1011.7 hPa ENE 3.2 km/h 4.8 km/h 93% 0 mm
13:49 8 °C 6.9 °C 1012.1 hPa ENE 3.2 km/h 4.8 km/h 93% 0 mm
13:54 7.9 °C 6.9 °C 1011.7 hPa Calm   8 km/h 93% 0 mm
13:59 7.9 °C 6.9 °C 1011.7 hPa ENE 4.8 km/h 6.4 km/h 93% 0 mm
14:04 8.1 °C 7.1 °C 1011.7 hPa ENE 4.8 km/h 6.4 km/h 93% 0 mm
14:09 8.1 °C 7.1 °C 1011.7 hPa ENE 3.2 km/h 6.4 km/h 93% 0 mm
14:14 8.2 °C 7.2 °C 1011.7 hPa ENE 3.2 km/h 6.4 km/h 93% 0 mm
14:19 8.3 °C 7.1 °C 1011.4 hPa ENE 3.2 km/h 6.4 km/h 92% 0 mm
14:24 8.3 °C 7.1 °C 1011.4 hPa ENE 3.2 km/h 6.4 km/h 92% 0 mm
14:29 8.3 °C 7.1 °C 1011.4 hPa ENE 3.2 km/h 8 km/h 92% 0 mm
14:34 8.2 °C 7 °C 1011.1 hPa Calm   6.4 km/h 92% 0 mm
14:39 8.3 °C 7.1 °C 1011.1 hPa Calm   4.8 km/h 92% 0 mm
14:44 8.3 °C 7.1 °C 1010.7 hPa ENE 1.6 km/h 6.4 km/h 92% 0 mm
14:49 8.3 °C 7.1 °C 1011.1 hPa ENE 1.6 km/h 6.4 km/h 92% 0 mm
14:54 8.4 °C 7.2 °C 1011.1 hPa ENE 1.6 km/h 6.4 km/h 92% 0 mm
14:59 8.4 °C 7 °C 1011.1 hPa Calm     91% 0 mm
15:04 8.5 °C 7.3 °C 1010.7 hPa Calm     92% 0 mm
15:09 8.6 °C 7.2 °C 1010.7 hPa Calm   4.8 km/h 91% 0 mm
15:14 8.6 °C 7.2 °C 1010.7 hPa ENE 1.6 km/h 4.8 km/h 91% 0 mm
15:19 8.7 °C 7.3 °C 1010.7 hPa ENE 1.6 km/h 4.8 km/h 91% 0 mm
15:24 8.7 °C 7.3 °C 1011.1 hPa Calm   3.2 km/h 91% 0 mm
15:29 8.7 °C 7.3 °C 1010.7 hPa ENE 1.6 km/h 3.2 km/h 91% 0 mm
15:34 8.6 °C 7.2 °C 1011.4 hPa ENE 3.2 km/h 4.8 km/h 91% 0 mm
15:39 8.5 °C 7.1 °C 1011.4 hPa Calm   3.2 km/h 91% 0.51 mm
15:44 8.5 °C 7.1 °C 1011.4 hPa Calm     91% 0.76 mm
15:49 8.3 °C 6.9 °C 1011.1 hPa Calm     91% 0.76 mm
15:54 8.2 °C 6.8 °C 1011.1 hPa Calm     91% 1.02 mm
15:59 8.3 °C 6.9 °C 1011.1 hPa Calm     91% 1.02 mm
16:04 8.2 °C 6.8 °C 1010.7 hPa Calm     91% 1.02 mm
16:09 8.2 °C 6.9 °C 1011.1 hPa Calm     92% 1.02 mm
16:14 8.2 °C 6.9 °C 1010.7 hPa Calm     92% 1.02 mm
16:19 8.1 °C 6.7 °C 1010.7 hPa Calm     91% 1.02 mm
16:24 7.9 °C 6.5 °C 1010.4 hPa ENE 1.6 km/h 4.8 km/h 91% 1.02 mm
16:29 7.8 °C 6.6 °C 1010.7 hPa ENE 4.8 km/h 4.8 km/h 92% 1.02 mm
16:34 7.8 °C 6.6 °C 1010.7 hPa Calm   6.4 km/h 92% 1.02 mm
16:39 7.8 °C 6.6 °C 1010.4 hPa ENE 1.6 km/h 3.2 km/h 92% 0.51 mm
16:44 7.8 °C 6.6 °C 1010.4 hPa Calm   4.8 km/h 92% 0.25 mm
16:49 7.8 °C 6.6 °C 1010.4 hPa Calm     92% 0.25 mm
16:54 7.7 °C 6.4 °C 1010 hPa Calm   4.8 km/h 92% 0 mm
16:59 7.7 °C 6.4 °C 1010 hPa ENE 1.6 km/h 8 km/h 92% 0 mm
17:04 7.6 °C 6.3 °C 1010 hPa ENE 1.6 km/h 8 km/h 92% 0 mm
17:09 7.5 °C 6.3 °C 1010 hPa ENE 1.6 km/h 4.8 km/h 92% 0 mm
17:14 7.4 °C 6.2 °C 1010 hPa ENE 1.6 km/h 3.2 km/h 92% 0 mm
17:19 7.4 °C 6.2 °C 1010 hPa Calm   1.6 km/h 92% 0 mm
17:24 7.4 °C 6.2 °C 1010 hPa Calm   3.2 km/h 92% 0 mm
17:29 7.5 °C 6.3 °C 1009.7 hPa Calm   3.2 km/h 92% 0 mm
17:34 7.5 °C 6.3 °C 1010 hPa Calm     92% 0 mm
17:39 7.6 °C 6.3 °C 1009.7 hPa Calm     92% 0 mm
17:44 7.6 °C 6.4 °C 1009.7 hPa Calm     92% 0 mm
17:49 7.7 °C 6.6 °C 1009.7 hPa Calm     93% 0 mm
17:54 7.7 °C 6.6 °C 1009.7 hPa Calm     93% 0 mm
17:59 7.7 °C 6.6 °C 1009.4 hPa Calm     93% 0 mm
18:04 7.6 °C 6.6 °C 1009.4 hPa Calm     93% 0 mm
18:09 7.7 °C 6.6 °C 1009.4 hPa Calm     93% 0 mm
18:14 7.8 °C 6.7 °C 1009.4 hPa Calm     93% 0 mm
18:19 7.8 °C 6.8 °C 1009.4 hPa Calm     93% 0 mm
18:24 7.9 °C 6.8 °C 1009.4 hPa ENE 1.6 km/h 3.2 km/h 93% 0 mm
18:29 7.9 °C 6.9 °C 1009.4 hPa Calm   4.8 km/h 93% 0 mm
18:34 8.1 °C 7 °C 1009.4 hPa Calm   4.8 km/h 93% 0 mm
18:39 7.9 °C 6.7 °C 1009 hPa Calm   1.6 km/h 92% 0 mm
18:44 7.9 °C 6.8 °C 1009 hPa Calm   1.6 km/h 93% 0 mm
18:49 7.9 °C 6.9 °C 1009 hPa Calm     93% 0 mm
18:54 7.9 °C 6.9 °C 1009 hPa Calm     93% 0 mm
18:59 7.9 °C 6.8 °C 1008.7 hPa Calm     93% 0 mm
19:04 7.9 °C 6.9 °C 1008.7 hPa Calm     93% 0 mm
19:09 8 °C 6.9 °C 1008.7 hPa Calm     93% 0 mm
19:14 8 °C 6.9 °C 1008.4 hPa Calm     93% 0 mm
19:19 8 °C 6.9 °C 1008.4 hPa Calm     93% 0 mm
19:24 8.1 °C 7 °C 1008.4 hPa Calm     93% 0 mm
19:29 8.1 °C 7.1 °C 1008 hPa Calm     93% 0 mm
19:34 8.1 °C 7 °C 1008 hPa Calm     93% 0 mm
19:39 8.1 °C 7.1 °C 1008 hPa Calm     93% 0 mm
19:44 8.2 °C 7.2 °C 1008 hPa Calm     93% 0 mm
19:49 8.3 °C 7.3 °C 1008 hPa Calm     93% 0 mm
19:54 8.4 °C 7.4 °C 1007.7 hPa Calm     93% 0 mm
19:59 8.6 °C 7.5 °C 1007.7 hPa ENE 6.4 km/h 6.4 km/h 93% 0 mm
20:04 8.8 °C 7.7 °C 1008 hPa East 4.8 km/h 9.7 km/h 93% 0 mm
20:09 8.9 °C 7.7 °C 1007.7 hPa East 3.2 km/h 9.7 km/h 92% 0 mm
20:19 9.3 °C 8.1 °C 1007.7 hPa East 3.2 km/h 9.7 km/h 92% 0 mm
20:24 9.4 °C 8.2 °C 1007.3 hPa ESE 1.6 km/h 11.3 km/h 92% 0 mm
20:29 9.6 °C 8.2 °C 1007.3 hPa Calm   8 km/h 91% 0 mm
20:34 9.6 °C 8.2 °C 1007.3 hPa ESE 4.8 km/h 6.4 km/h 91% 0 mm
20:39 9.7 °C 8.2 °C 1007.3 hPa SE 1.6 km/h 8 km/h 90% 0 mm
20:44 9.9 °C 8.2 °C 1007.3 hPa SE 4.8 km/h 11.3 km/h 89% 0 mm
20:49 10 °C 8.3 °C 1007.3 hPa SE 4.8 km/h 11.3 km/h 89% 0 mm
20:54 10.1 °C 8.2 °C 1007.3 hPa Calm   9.7 km/h 88% 0 mm
20:59 10.2 °C 8.1 °C 1007.3 hPa Calm   6.4 km/h 87% 0 mm
21:04 10.2 °C 7.9 °C 1007 hPa SE 1.6 km/h 6.4 km/h 86% 0 mm
21:09 10.1 °C 7.9 °C 1007 hPa Calm   4.8 km/h 86% 0 mm
21:14 10.1 °C 7.9 °C 1007 hPa SE 1.6 km/h 4.8 km/h 86% 0 mm
21:19 9.8 °C 7.6 °C 1007 hPa Calm   1.6 km/h 86% 0 mm
21:24 9.7 °C 7.4 °C 1007 hPa Calm   1.6 km/h 86% 0.25 mm
21:29 9.4 °C 7.2 °C 1006.7 hPa Calm   1.6 km/h 86% 0.25 mm
21:34 9.4 °C 7.4 °C 1006.7 hPa Calm     87% 0.25 mm
21:39 9.4 °C 7.3 °C 1006.7 hPa Calm     87% 0.25 mm
21:44 9.3 °C 7.4 °C 1006.7 hPa Calm     88% 0.25 mm
21:54 9.1 °C 7.2 °C 1006.3 hPa Calm     88% 0.51 mm
22:09 9.2 °C 7.5 °C 1006 hPa Calm     89% 0.76 mm
22:14 9.3 °C 7.6 °C 1006 hPa Calm     89% 1.02 mm
22:24 9.3 °C 7.6 °C 1006 hPa SE 1.6 km/h 4.8 km/h 89% 0.76 mm
22:29 9.3 °C 7.6 °C 1005.6 hPa SE 1.6 km/h 4.8 km/h 89% 0.76 mm
22:34 9.4 °C 7.7 °C 1005.6 hPa Calm     89% 1.02 mm
22:44 9.4 °C 7.7 °C 1005.3 hPa SSE 1.6 km/h 9.7 km/h 89% 1.02 mm
22:49 9.4 °C 7.7 °C 1005.3 hPa SSE 1.6 km/h 4.8 km/h 89% 1.02 mm
22:54 9.3 °C 7.4 °C 1005 hPa Calm   4.8 km/h 88% 1.02 mm
22:59 9.2 °C 7.3 °C 1005 hPa SSE 1.6 km/h 4.8 km/h 88% 1.02 mm
23:04 9.2 °C 7.4 °C 1005 hPa Calm   3.2 km/h 89% 1.27 mm
23:09 9.1 °C 7.4 °C 1005 hPa Calm   3.2 km/h 89% 1.02 mm
23:14 9.1 °C 7.3 °C 1005 hPa Calm   3.2 km/h 89% 0.76 mm
23:19 8.9 °C 7.2 °C 1005 hPa Calm   4.8 km/h 89% 1.02 mm
23:24 8.9 °C 7.2 °C 1004.6 hPa SSE 1.6 km/h 4.8 km/h 89% 1.02 mm
23:29 8.8 °C 7.1 °C 1004.6 hPa SSE 1.6 km/h 4.8 km/h 89% 1.02 mm
23:34 8.8 °C 7.1 °C 1004.3 hPa SSE 3.2 km/h 4.8 km/h 89% 1.02 mm
23:39 8.8 °C 7.1 °C 1004.3 hPa SSE 3.2 km/h 6.4 km/h 89% 1.02 mm
23:44 8.9 °C 7.2 °C 1004.3 hPa SSE 3.2 km/h 8 km/h 89% 1.02 mm
23:49 8.9 °C 7.2 °C 1003.9 hPa SSE 3.2 km/h 8 km/h 89% 0.76 mm
23:59 8.9 °C 7 °C 1003.3 hPa Calm   4.8 km/h 88% 1.02 mm
Buffalo, New York, USA
Compliments of Weather Underground - 2.25 mb